Time;durP1;ratioP1;P1;durP2;ratioP2;P2;SDS_P1;SDS_P2;PMS_P1;PMS_P2;Temp;Humidity;BMP_temperature;BMP_pressure;BME280_temperature;BME280_humidity;BME280_pressure;Samples;Min_cycle;Max_cycle;Signal;HPM_P1;HPM_P2
2023/09/15 00:00:23;;;;;;;1.20;0.80;;;;;;;15.82;68.68;99753.03;334619;28;18898;-80
2023/09/15 00:00:36;;;;;;;1.45;1.20;;;;;;;15.76;68.84;99756.00;334270;28;18340;-79
2023/09/15 00:00:48;;;;;;;1.27;1.08;;;;;;;15.74;69.17;99757.84;334801;28;11602;-79
2023/09/15 00:01:00;;;;;;;1.20;0.85;;;;;;;15.75;69.00;99756.91;336951;28;4684;-79
2023/09/15 00:01:12;;;;;;;2.05;0.70;;;;;;;15.74;69.07;99757.84;337132;28;5209;-79
2023/09/15 00:01:25;;;;;;;2.58;0.80;;;;;;;15.74;69.07;99752.59;333911;28;18084;-80
2023/09/15 00:01:40;;;;;;;1.52;0.80;;;;;;;15.73;69.07;99756.13;336376;28;4751;-79
2023/09/15 00:01:52;;;;;;;1.67;0.73;;;;;;;15.69;68.67;99754.56;332756;28;17820;-79
2023/09/15 00:02:05;;;;;;;2.70;0.90;;;;;;;15.67;69.18;99751.19;337450;28;4724;-79
2023/09/15 00:02:18;;;;;;;2.30;0.93;;;;;;;15.65;69.18;99753.03;333193;28;18111;-79
2023/09/15 00:02:30;;;;;;;1.35;0.88;;;;;;;15.64;69.11;99752.19;335167;28;16568;-79
2023/09/15 00:02:43;;;;;;;1.27;0.90;;;;;;;15.65;69.10;99753.03;336344;28;5302;-79
2023/09/15 00:02:56;;;;;;;0.90;0.80;;;;;;;15.65;69.14;99753.03;336035;28;11211;-79
2023/09/15 00:03:08;;;;;;;0.70;0.70;;;;;;;15.66;69.24;99752.13;334764;28;16200;-79
2023/09/15 00:03:23;;;;;;;0.80;0.80;;;;;;;15.69;69.09;99751.94;334151;28;17941;-79
2023/09/15 00:03:35;;;;;;;0.98;0.70;;;;;;;15.70;69.01;99751.88;337190;28;4731;-79
2023/09/15 00:03:47;;;;;;;1.63;0.82;;;;;;;15.71;68.99;99752.72;334527;28;18099;-79
2023/09/15 00:04:03;;;;;;;1.55;0.82;;;;;;;15.73;68.98;99756.13;337587;28;4550;-79
2023/09/15 00:04:15;;;;;;;1.00;0.70;;;;;;;15.72;69.01;99755.28;334854;28;17602;-79
2023/09/15 00:04:27;;;;;;;1.20;0.70;;;;;;;15.72;69.42;99754.44;333841;28;19119;-79
2023/09/15 00:04:39;;;;;;;1.35;0.80;;;;;;;15.70;69.46;99757.13;332365;28;4544;-79
2023/09/15 00:04:51;;;;;;;1.10;0.80;;;;;;;15.70;69.26;99762.34;334738;28;18271;-79
2023/09/15 00:05:05;;;;;;;1.60;0.90;;;;;;;15.68;69.50;99752.91;337423;28;4635;-79
2023/09/15 00:05:18;;;;;;;1.40;0.80;;;;;;;15.66;69.66;99755.59;335050;28;18114;-79
2023/09/15 00:05:33;;;;;;;1.25;0.80;;;;;;;15.66;69.56;99754.75;337192;28;4588;-79
2023/09/15 00:05:48;;;;;;;1.10;0.85;;;;;;;15.67;69.38;99759.03;335850;28;17767;-79
2023/09/15 00:06:00;;;;;;;1.38;0.80;;;;;;;15.66;69.76;99760.00;334650;28;18015;-80
2023/09/15 00:06:12;;;;;;;1.40;0.88;;;;;;;15.62;69.93;99753.22;330109;28;11701;-79
2023/09/15 00:06:24;;;;;;;1.38;0.90;;;;;;;15.64;69.84;99756.59;336849;28;4678;-80
2023/09/15 00:06:37;;;;;;;0.90;0.80;;;;;;;15.63;69.72;99754.88;337368;28;4549;-79
2023/09/15 00:06:49;;;;;;;0.85;0.82;;;;;;;15.65;69.75;99758.28;330403;28;18401;-79
2023/09/15 00:07:01;;;;;;;0.98;0.85;;;;;;;15.64;69.61;99756.59;337275;28;4666;-80
2023/09/15 00:07:14;;;;;;;1.20;0.90;;;;;;;15.67;69.83;99756.44;334331;28;17955;-80
2023/09/15 00:07:27;;;;;;;1.52;0.95;;;;;;;15.67;69.70;99752.03;336660;28;4692;-79
2023/09/15 00:07:39;;;;;;;1.60;1.10;;;;;;;15.64;70.01;99751.34;334696;28;18747;-80
2023/09/15 00:07:52;;;;;;;1.77;1.10;;;;;;;15.65;69.79;99753.03;337209;28;5323;-79
2023/09/15 00:08:05;;;;;;;1.92;1.10;;;;;;;15.65;69.75;99755.66;333074;28;18208;-79
2023/09/15 00:08:17;;;;;;;1.10;0.70;;;;;;;15.67;69.64;99759.03;334160;28;18344;-79
2023/09/15 00:08:29;;;;;;;0.70;0.68;;;;;;;15.68;69.63;99758.13;336702;28;4510;-79
2023/09/15 00:08:41;;;;;;;0.77;0.60;;;;;;;15.68;69.60;99758.13;337129;28;5193;-79
2023/09/15 00:08:53;;;;;;;1.08;0.77;;;;;;;15.70;69.51;99751.03;334759;28;18283;-79
2023/09/15 00:09:09;;;;;;;4.78;1.00;;;;;;;15.71;69.50;99755.34;337291;28;5688;-79
2023/09/15 00:09:21;;;;;;;5.43;1.20;;;;;;;15.71;69.41;99758.78;333877;28;18856;-79
2023/09/15 00:09:33;;;;;;;3.70;1.25;;;;;;;15.72;69.48;99759.66;334737;28;16667;-79
2023/09/15 00:09:45;;;;;;;2.30;1.10;;;;;;;15.73;69.47;99758.75;336024;28;4900;-79
2023/09/15 00:09:58;;;;;;;1.70;0.80;;;;;;;15.74;69.53;99760.47;336227;28;4671;-79
2023/09/15 00:10:11;;;;;;;1.23;0.80;;;;;;;15.74;69.33;99752.59;333384;28;18201;-79
2023/09/15 00:10:24;;;;;;;1.15;0.80;;;;;;;15.72;69.25;99755.28;335370;28;18287;-78
2023/09/15 00:10:39;;;;;;;1.33;0.93;;;;;;;15.73;69.20;99750.91;334649;28;17146;-79
2023/09/15 00:10:51;;;;;;;3.13;1.08;;;;;;;15.74;69.06;99749.97;334760;28;17652;-79
2023/09/15 00:11:03;;;;;;;4.10;1.08;;;;;;;15.75;69.12;99759.53;337524;28;4685;-79
2023/09/15 00:11:19;;;;;;;2.63;0.95;;;;;;;15.75;69.04;99749.03;334515;28;19196;-79
2023/09/15 00:11:39;;;;;;;2.83;0.88;;;;;;;15.75;68.86;99754.28;333442;28;17627;-79
2023/09/15 00:11:51;;;;;;;3.65;0.90;;;;;;;15.77;69.01;99747.19;333181;29;17641;-79
2023/09/15 00:12:04;;;;;;;1.95;0.90;;;;;;;15.80;68.62;99751.44;330900;29;4633;-79
2023/09/15 00:12:16;;;;;;;1.10;0.70;;;;;;;15.80;68.62;99752.28;333194;28;19147;-79
2023/09/15 00:12:28;;;;;;;1.23;0.60;;;;;;;15.81;68.68;99747.88;336552;28;4960;-79
2023/09/15 00:12:44;;;;;;;1.53;0.73;;;;;;;15.78;68.68;99748.91;332931;28;18195;-79
2023/09/15 00:12:57;;;;;;;1.40;0.90;;;;;;;15.79;68.47;99750.56;327507;29;17942;-79
2023/09/15 00:13:09;;;;;;;1.33;0.90;;;;;;;15.78;68.74;99747.13;331893;29;18194;-79
2023/09/15 00:13:22;;;;;;;1.13;0.80;;;;;;;15.79;68.57;99750.56;334174;28;5329;-79
2023/09/15 00:13:34;;;;;;;2.33;0.70;;;;;;;15.79;68.55;99750.56;336316;28;4679;-79
2023/09/15 00:13:46;;;;;;;2.20;0.70;;;;;;;15.79;68.72;99755.81;334238;28;18548;-79
2023/09/15 00:13:58;;;;;;;1.13;0.73;;;;;;;15.80;68.64;99754.06;337640;28;4610;-79
2023/09/15 00:14:13;;;;;;;1.00;0.70;;;;;;;15.80;68.60;99744.41;334956;28;11495;-78
2023/09/15 00:14:25;;;;;;;1.75;0.90;;;;;;;15.76;68.83;99756.81;332098;28;16365;-79
2023/09/15 00:14:38;;;;;;;1.77;0.90;;;;;;;15.76;68.85;99742.88;336174;28;4498;-79
2023/09/15 00:14:50;;;;;;;1.65;0.85;;;;;;;15.76;68.75;99745.50;331909;28;7280;-78
2023/09/15 00:15:07;;;;;;;1.50;0.70;;;;;;;15.74;69.16;99744.75;330359;28;4795;-78
2023/09/15 00:15:19;;;;;;;1.40;0.80;;;;;;;15.72;68.96;99744.81;332853;28;19388;-79
2023/09/15 00:15:32;;;;;;;0.85;0.80;;;;;;;15.74;69.03;99749.97;332615;28;18559;-79
2023/09/15 00:15:44;;;;;;;1.40;0.80;;;;;;;15.71;69.15;99747.47;335557;28;5048;-78
2023/09/15 00:15:56;;;;;;;1.50;0.82;;;;;;;15.71;69.15;99752.72;332496;28;18148;-79
2023/09/15 00:16:09;;;;;;;1.40;1.00;;;;;;;15.72;69.04;99752.69;335260;28;4870;-78
2023/09/15 00:16:23;;;;;;;1.52;0.90;;;;;;;15.73;69.05;99748.28;331970;28;17114;-78
2023/09/15 00:16:35;;;;;;;1.42;0.75;;;;;;;15.74;68.92;99744.75;332007;28;4659;-80
2023/09/15 00:16:48;;;;;;;1.58;0.77;;;;;;;15.72;69.03;99739.56;333870;28;18115;-79
2023/09/15 00:17:00;;;;;;;1.33;0.80;;;;;;;15.72;69.14;99749.19;337416;28;4768;-79
2023/09/15 00:17:12;;;;;;;1.17;0.80;;;;;;;15.74;69.08;99747.38;334243;28;17946;-78
2023/09/15 00:17:27;;;;;;;1.30;0.80;;;;;;;15.74;69.21;99747.38;336823;28;4814;-79
2023/09/15 00:17:41;;;;;;;1.25;0.80;;;;;;;15.73;69.03;99745.66;333001;28;17516;-81
2023/09/15 00:17:55;;;;;;;1.33;0.90;;;;;;;15.74;69.30;99747.38;329234;28;19600;-79
2023/09/15 00:18:07;;;;;;;1.63;0.90;;;;;;;15.72;69.35;99750.06;332506;28;18173;-79
2023/09/15 00:18:19;;;;;;;1.60;0.93;;;;;;;15.74;69.11;99753.44;336797;28;4751;-79
2023/09/15 00:18:31;;;;;;;1.30;0.95;;;;;;;15.76;69.05;99750.75;334605;28;5483;-78
2023/09/15 00:18:43;;;;;;;1.65;1.15;;;;;;;15.74;69.06;99749.97;335808;29;4639;-79
2023/09/15 00:18:55;;;;;;;1.63;1.15;;;;;;;15.75;69.06;99751.66;335984;29;5078;-79
2023/09/15 00:19:13;;;;;;;1.05;0.93;;;;;;;15.74;69.39;99747.38;332313;29;5358;-79
2023/09/15 00:19:25;;;;;;;1.00;0.90;;;;;;;15.74;69.31;99755.22;332777;28;17828;-80
2023/09/15 00:19:40;;;;;;;1.33;0.80;;;;;;;15.74;69.08;99755.22;334295;28;5374;-79
2023/09/15 00:19:52;;;;;;;1.50;0.80;;;;;;;15.71;69.55;99750.09;334701;28;10902;-79
2023/09/15 00:20:14;;;;;;;1.20;0.80;;;;;;;15.71;69.38;99752.72;337164;28;5089;-79
2023/09/15 00:20:26;;;;;;;1.42;0.80;;;;;;;15.70;69.44;99748.41;334039;28;17541;-79
2023/09/15 00:20:39;;;;;;;1.20;0.80;;;;;;;15.69;69.73;99750.16;334198;28;18024;-81
2023/09/15 00:20:51;;;;;;;1.73;0.80;;;;;;;15.70;69.42;99751.03;336346;28;4812;-80
2023/09/15 00:21:05;;;;;;;1.50;0.80;;;;;;;15.70;69.41;99751.88;333589;28;16134;-79
2023/09/15 00:21:17;;;;;;;1.52;0.90;;;;;;;15.70;69.61;99745.78;334141;28;11787;-78
2023/09/15 00:21:29;;;;;;;2.03;1.02;;;;;;;15.70;69.57;99751.88;337289;28;4532;-78
2023/09/15 00:21:41;;;;;;;2.60;1.00;;;;;;;15.72;69.50;99750.06;337575;28;4698;-79
2023/09/15 00:21:55;;;;;;;1.83;0.80;;;;;;;15.73;69.17;99750.91;334222;28;17946;-79
2023/09/15 00:22:07;;;;;;;1.02;0.68;;;;;;;15.72;69.39;99746.56;337430;28;5431;-79
2023/09/15 00:22:19;;;;;;;0.93;0.70;;;;;;;15.73;69.21;99753.50;334197;28;18114;-79
2023/09/15 00:22:31;;;;;;;0.70;0.65;;;;;;;15.73;69.37;99754.34;332472;28;4686;-80
2023/09/15 00:22:51;;;;;;;0.60;0.55;;;;;;;15.74;69.24;99752.59;333475;28;16777;-80
2023/09/15 00:23:04;;;;;;;0.70;0.52;;;;;;;15.75;69.10;99755.16;334457;28;17681;-78
2023/09/15 00:23:17;;;;;;;0.95;0.68;;;;;;;15.75;69.09;99749.03;336838;28;4648;-80
2023/09/15 00:23:29;;;;;;;1.63;0.70;;;;;;;15.75;69.01;99755.16;333103;28;5662;-79
2023/09/15 00:23:41;;;;;;;1.80;0.70;;;;;;;15.74;68.96;99752.59;336597;28;5217;-80
2023/09/15 00:23:53;;;;;;;0.95;0.65;;;;;;;15.75;68.94;99749.91;332469;28;5009;-79
2023/09/15 00:24:05;;;;;;;1.55;0.70;;;;;;;15.76;69.12;99756.00;336166;28;4631;-79
2023/09/15 00:24:17;;;;;;;1.67;0.85;;;;;;;15.76;68.96;99756.00;335695;28;5588;-79
2023/09/15 00:24:29;;;;;;;2.13;1.08;;;;;;;15.74;69.00;99749.97;333719;28;18118;-79
2023/09/15 00:24:41;;;;;;;1.60;1.05;;;;;;;15.74;69.49;99752.59;337159;28;5336;-78
2023/09/15 00:24:55;;;;;;;1.05;0.90;;;;;;;15.71;69.19;99752.72;333894;28;18343;-79
2023/09/15 00:25:09;;;;;;;1.17;0.80;;;;;;;15.70;69.42;99751.03;337331;28;4495;-80
2023/09/15 00:25:26;;;;;;;1.10;0.70;;;;;;;15.70;69.29;99751.03;332811;28;18139;-79
2023/09/15 00:25:38;;;;;;;0.63;0.52;;;;;;;15.71;69.24;99750.09;333180;29;17692;-79
2023/09/15 00:25:54;;;;;;;0.85;0.65;;;;;;;15.70;69.37;99746.63;332603;28;17066;-78
2023/09/15 00:26:06;;;;;;;1.40;0.95;;;;;;;15.72;69.14;99754.44;332986;28;17929;-79
2023/09/15 00:26:23;;;;;;;1.95;1.05;;;;;;;15.69;69.39;99746.72;335859;28;4850;-78
2023/09/15 00:26:36;;;;;;;1.73;0.80;;;;;;;15.70;69.01;99751.03;333866;28;17633;-80
2023/09/15 00:26:48;;;;;;;0.95;0.63;;;;;;;15.69;69.24;99754.56;332335;28;5790;-79
2023/09/15 00:27:01;;;;;;;1.00;0.70;;;;;;;15.69;69.12;99750.16;334492;28;17885;-79
2023/09/15 00:27:13;;;;;;;1.00;0.68;;;;;;;15.68;69.14;99752.91;335667;28;4609;-79
2023/09/15 00:27:25;;;;;;;0.82;0.70;;;;;;;15.67;69.30;99745.94;332994;28;18331;-79
2023/09/15 00:27:37;;;;;;;1.05;0.80;;;;;;;15.64;69.14;99748.75;335858;28;4749;-80
2023/09/15 00:27:54;;;;;;;1.15;0.88;;;;;;;15.64;69.27;99752.19;334588;28;11696;-79
2023/09/15 00:28:06;;;;;;;0.80;0.70;;;;;;;15.63;69.18;99754.88;333071;29;18728;-79
2023/09/15 00:28:18;;;;;;;1.38;0.80;;;;;;;15.62;69.24;99748.81;331511;28;4573;-79
2023/09/15 00:28:31;;;;;;;1.50;0.80;;;;;;;15.60;69.40;99753.28;334001;28;17199;-80
2023/09/15 00:28:42;;;;;;;1.33;0.70;;;;;;;15.62;69.22;99748.81;336843;28;4902;-79
2023/09/15 00:28:55;;;;;;;0.95;0.77;;;;;;;15.61;69.04;99754.97;336346;28;9555;-79
2023/09/15 00:29:07;;;;;;;1.27;0.98;;;;;;;15.61;69.17;99754.97;333587;28;17288;-79
2023/09/15 00:29:21;;;;;;;1.42;0.93;;;;;;;15.61;69.21;99751.50;333208;28;16955;-80
2023/09/15 00:29:33;;;;;;;1.40;0.80;;;;;;;15.60;69.08;99749.81;336907;28;4577;-79
2023/09/15 00:29:45;;;;;;;0.95;0.80;;;;;;;15.60;69.01;99745.44;336015;28;4795;-79
2023/09/15 00:29:57;;;;;;;0.90;0.80;;;;;;;15.61;69.06;99746.25;329318;28;18097;-79
2023/09/15 00:30:09;;;;;;;1.30;0.80;;;;;;;15.60;69.01;99747.19;337012;28;5490;-80
2023/09/15 00:30:22;;;;;;;1.48;0.80;;;;;;;15.61;69.09;99752.34;333511;28;17944;-79
2023/09/15 00:30:37;;;;;;;2.42;0.70;;;;;;;15.62;69.11;99747.97;336073;28;4753;-79
2023/09/15 00:30:49;;;;;;;2.25;0.75;;;;;;;15.58;69.32;99763.84;331861;29;17825;-79
2023/09/15 00:31:02;;;;;;;1.25;0.82;;;;;;;15.60;69.32;99747.19;333352;28;5373;-78
2023/09/15 00:31:14;;;;;;;1.50;0.90;;;;;;;15.58;69.30;99753.34;332244;28;4772;-79
2023/09/15 00:31:26;;;;;;;1.58;0.77;;;;;;;15.60;69.14;99757.69;333575;28;4970;-79
2023/09/15 00:31:39;;;;;;;1.38;0.70;;;;;;;15.58;69.18;99755.97;335587;28;5156;-79
2023/09/15 00:31:52;;;;;;;3.28;0.60;;;;;;;15.59;69.05;99754.19;334003;28;5391;-78
2023/09/15 00:32:07;;;;;;;3.13;0.70;;;;;;;15.62;69.02;99763.69;329209;28;5089;-79
2023/09/15 00:32:19;;;;;;;0.98;0.88;;;;;;;15.62;69.02;99754.06;332891;28;16159;-80
2023/09/15 00:32:34;;;;;;;1.10;0.90;;;;;;;15.61;69.12;99749.72;335747;28;6068;-80
2023/09/15 00:32:47;;;;;;;1.33;1.02;;;;;;;15.63;69.20;99752.28;333757;28;17668;-79
2023/09/15 00:32:59;;;;;;;1.10;0.90;;;;;;;15.62;69.38;99751.44;333442;28;18034;-79
2023/09/15 00:33:11;;;;;;;1.33;0.90;;;;;;;15.62;69.30;99754.06;336440;28;5051;-79
2023/09/15 00:33:23;;;;;;;1.30;0.70;;;;;;;15.61;69.41;99757.59;331046;28;14693;-79
2023/09/15 00:33:35;;;;;;;1.90;1.02;;;;;;;15.60;69.37;99755.91;333815;29;5055;-79
2023/09/15 00:33:47;;;;;;;2.53;1.17;;;;;;;15.60;69.66;99760.31;329676;29;18082;-79
2023/09/15 00:34:00;;;;;;;2.05;1.02;;;;;;;15.61;69.42;99754.13;334459;28;4529;-79
2023/09/15 00:34:14;;;;;;;1.60;0.90;;;;;;;15.58;69.32;99752.53;332067;28;5466;-79
2023/09/15 00:34:27;;;;;;;0.75;0.70;;;;;;;15.59;69.31;99754.19;336001;28;16744;-78
2023/09/15 00:34:39;;;;;;;0.90;0.70;;;;;;;15.57;69.48;99751.69;335058;28;15461;-79
2023/09/15 00:34:51;;;;;;;0.90;0.77;;;;;;;15.55;69.84;99753.53;336733;28;5567;-79
2023/09/15 00:35:03;;;;;;;0.70;0.70;;;;;;;15.56;69.36;99749.13;330355;28;15010;-79
2023/09/15 00:35:17;;;;;;;1.63;0.70;;;;;;;15.56;69.52;99749.97;335542;29;7237;-78
2023/09/15 00:35:30;;;;;;;1.80;0.70;;;;;;;15.57;69.52;99743.81;332961;29;19035;-78
2023/09/15 00:35:42;;;;;;;1.58;0.77;;;;;;;15.60;69.27;99750.66;335943;28;4712;-78
2023/09/15 00:35:54;;;;;;;1.50;0.80;;;;;;;15.61;69.06;99754.13;334657;28;9036;-79
2023/09/15 00:36:06;;;;;;;1.35;0.80;;;;;;;15.63;69.15;99752.28;337450;28;4689;-78
2023/09/15 00:36:18;;;;;;;1.42;0.80;;;;;;;15.64;68.82;99746.97;334835;28;18070;-78
2023/09/15 00:36:30;;;;;;;1.30;0.80;;;;;;;15.66;68.93;99749.50;336930;28;4659;-78
2023/09/15 00:36:45;;;;;;;1.38;0.80;;;;;;;15.66;68.73;99749.50;336720;28;5307;-78
2023/09/15 00:36:57;;;;;;;1.20;0.70;;;;;;;15.64;68.89;99751.34;334980;28;16782;-79
2023/09/15 00:37:09;;;;;;;1.05;0.70;;;;;;;15.66;68.97;99746.88;332991;29;18172;-78
2023/09/15 00:37:22;;;;;;;1.00;0.70;;;;;;;15.64;68.76;99752.19;335315;29;5542;-79
2023/09/15 00:37:34;;;;;;;1.35;0.70;;;;;;;15.64;68.74;99746.13;332877;28;5599;-78
2023/09/15 00:37:46;;;;;;;1.55;0.70;;;;;;;15.63;68.53;99745.25;335940;28;5339;-79
2023/09/15 00:37:59;;;;;;;1.95;0.88;;;;;;;15.64;68.73;99743.50;333240;28;18264;-78
2023/09/15 00:38:11;;;;;;;2.28;1.00;;;;;;;15.64;68.60;99748.75;335679;28;5237;-79
2023/09/15 00:38:23;;;;;;;1.77;0.95;;;;;;;15.60;68.72;99749.81;334507;28;18139;-80
2023/09/15 00:38:35;;;;;;;1.10;0.68;;;;;;;15.61;68.78;99746.25;332486;29;16763;-80
2023/09/15 00:38:47;;;;;;;0.63;0.60;;;;;;;15.62;68.60;99742.72;330567;29;5535;-79
2023/09/15 00:39:01;;;;;;;0.73;0.60;;;;;;;15.61;68.64;99746.25;333248;28;5462;-79
2023/09/15 00:39:13;;;;;;;0.80;0.60;;;;;;;15.61;68.78;99746.25;336178;28;4970;-79
2023/09/15 00:39:25;;;;;;;1.20;0.80;;;;;;;15.61;68.67;99746.25;331369;29;16790;-80
2023/09/15 00:39:37;;;;;;;1.23;0.90;;;;;;;15.60;68.61;99749.81;334641;29;5070;-80
2023/09/15 00:39:49;;;;;;;1.00;0.80;;;;;;;15.61;68.50;99752.34;331987;29;18348;-80
2023/09/15 00:40:06;;;;;;;1.15;0.73;;;;;;;15.61;68.42;99751.50;334636;29;5198;-79
2023/09/15 00:40:20;;;;;;;1.50;0.77;;;;;;;15.62;68.44;99745.34;330794;29;17748;-79
2023/09/15 00:40:32;;;;;;;1.33;0.80;;;;;;;15.61;68.52;99747.09;329670;29;18034;-79
2023/09/15 00:40:44;;;;;;;1.08;0.85;;;;;;;15.58;68.64;99753.34;331975;29;11297;-79
2023/09/15 00:40:56;;;;;;;0.80;0.77;;;;;;;15.57;68.59;99746.44;334919;29;4904;-79
2023/09/15 00:41:08;;;;;;;0.77;0.70;;;;;;;15.57;68.59;99749.06;333172;29;4622;-79
2023/09/15 00:41:20;;;;;;;1.10;0.73;;;;;;;15.57;68.58;99750.81;332087;29;17843;-78
2023/09/15 00:41:32;;;;;;;1.40;0.95;;;;;;;15.55;68.69;99753.53;336722;28;4727;-79
2023/09/15 00:41:44;;;;;;;1.63;1.00;;;;;;;15.53;68.61;99749.28;332926;28;4640;-79
2023/09/15 00:41:56;;;;;;;1.30;0.80;;;;;;;15.54;68.73;99751.81;334770;28;18152;-79
2023/09/15 00:42:08;;;;;;;0.98;0.70;;;;;;;15.55;68.58;99753.53;337567;28;5218;-79
2023/09/15 00:42:21;;;;;;;0.82;0.63;;;;;;;15.56;68.52;99757.81;334495;28;11023;-79
2023/09/15 00:42:33;;;;;;;1.30;0.90;;;;;;;15.56;68.77;99755.22;337103;28;4746;-79
2023/09/15 00:42:47;;;;;;;1.38;0.90;;;;;;;15.55;68.66;99753.53;334529;28;11516;-79
2023/09/15 00:42:59;;;;;;;3.05;0.85;;;;;;;15.54;68.80;99751.81;337615;28;5495;-79
2023/09/15 00:43:11;;;;;;;3.03;0.70;;;;;;;15.53;68.78;99757.13;335424;28;11782;-78
2023/09/15 00:43:23;;;;;;;3.00;0.90;;;;;;;15.51;68.93;99754.63;334326;28;11673;-78
2023/09/15 00:43:35;;;;;;;2.10;0.90;;;;;;;15.49;69.08;99753.84;336580;28;4779;-79
2023/09/15 00:43:47;;;;;;;1.83;0.80;;;;;;;15.49;68.82;99759.09;333390;29;18333;-79
2023/09/15 00:43:59;;;;;;;1.65;0.70;;;;;;;15.48;68.84;99751.31;335778;29;4706;-79
2023/09/15 00:44:11;;;;;;;1.88;0.80;;;;;;;15.48;68.69;99751.31;333588;29;17925;-79
2023/09/15 00:44:23;;;;;;;1.58;0.70;;;;;;;15.47;68.63;99755.66;336470;28;6940;-79
2023/09/15 00:44:35;;;;;;;1.33;0.80;;;;;;;15.48;68.90;99757.38;336938;28;5232;-79
2023/09/15 00:44:47;;;;;;;1.30;0.80;;;;;;;15.47;68.60;99758.28;334903;28;16024;-79
2023/09/15 00:45:04;;;;;;;0.98;0.77;;;;;;;15.46;68.45;99759.22;336166;28;5607;-79
2023/09/15 00:45:19;;;;;;;0.82;0.60;;;;;;;15.46;68.48;99759.22;333017;28;17678;-79
2023/09/15 00:45:32;;;;;;;1.08;0.80;;;;;;;15.46;68.58;99761.84;332848;29;17963;-79
2023/09/15 00:45:44;;;;;;;1.10;0.80;;;;;;;15.45;68.47;99752.28;337235;28;5115;-79
2023/09/15 00:45:56;;;;;;;1.00;0.70;;;;;;;15.43;68.34;99754.13;337134;28;17732;-79
2023/09/15 00:46:10;;;;;;;1.00;0.77;;;;;;;15.42;68.64;99762.94;334615;28;17828;-78
2023/09/15 00:46:23;;;;;;;0.93;0.70;;;;;;;15.41;68.63;99758.59;333673;28;18455;-79
2023/09/15 00:46:35;;;;;;;1.05;0.70;;;;;;;15.41;68.71;99757.75;337656;28;4596;-79
2023/09/15 00:46:47;;;;;;;1.20;0.60;;;;;;;15.36;68.73;99753.59;331560;29;17804;-80
2023/09/15 00:47:00;;;;;;;1.30;0.80;;;;;;;15.40;68.84;99758.72;334792;29;5012;-80
2023/09/15 00:47:12;;;;;;;1.42;0.90;;;;;;;15.37;68.72;99759.69;333494;29;9754;-79
2023/09/15 00:47:24;;;;;;;1.17;0.90;;;;;;;15.37;69.02;99760.56;336544;28;4859;-79
2023/09/15 00:47:38;;;;;;;0.90;0.75;;;;;;;15.38;68.99;99756.16;332792;28;4735;-79
2023/09/15 00:47:52;;;;;;;0.80;0.70;;;;;;;15.35;69.16;99759.78;334380;28;18041;-79
2023/09/15 00:48:05;;;;;;;0.80;0.63;;;;;;;15.36;69.24;99758.00;334405;28;18212;-78
2023/09/15 00:48:18;;;;;;;0.98;0.68;;;;;;;15.36;69.28;99752.78;333542;29;17528;-78
2023/09/15 00:48:32;;;;;;;1.00;0.70;;;;;;;15.36;69.24;99758.00;334308;29;4704;-80
2023/09/15 00:48:45;;;;;;;0.90;0.73;;;;;;;15.36;69.21;99758.00;333737;28;18012;-79
2023/09/15 00:48:59;;;;;;;0.90;0.80;;;;;;;15.38;69.27;99746.53;334187;28;16153;-78
2023/09/15 00:49:11;;;;;;;0.70;0.70;;;;;;;15.38;69.29;99757.00;336197;28;5516;-79
2023/09/15 00:49:23;;;;;;;0.82;0.70;;;;;;;15.39;69.32;99752.59;334066;28;18091;-79
2023/09/15 00:49:36;;;;;;;1.50;0.80;;;;;;;15.39;69.31;99752.59;337335;28;4649;-78
2023/09/15 00:49:48;;;;;;;1.95;0.80;;;;;;;15.39;69.37;99755.22;332558;29;4677;-79
2023/09/15 00:50:01;;;;;;;1.40;0.70;;;;;;;15.37;69.30;99757.06;334792;29;4726;-79
2023/09/15 00:50:14;;;;;;;1.45;0.88;;;;;;;15.35;69.25;99751.06;332008;28;13081;-79
2023/09/15 00:50:31;;;;;;;1.17;0.90;;;;;;;15.35;69.23;99753.69;335712;28;5641;-79
2023/09/15 00:50:44;;;;;;;1.20;0.77;;;;;;;15.34;69.28;99750.22;330922;28;17698;-80
2023/09/15 00:50:56;;;;;;;1.48;0.95;;;;;;;15.34;69.10;99744.13;331883;29;18130;-80
2023/09/15 00:51:08;;;;;;;1.65;1.02;;;;;;;15.31;69.45;99749.53;335996;28;4671;-79
2023/09/15 00:51:21;;;;;;;1.58;0.90;;;;;;;15.32;69.48;99748.63;333065;28;17931;-80
2023/09/15 00:51:33;;;;;;;1.83;1.00;;;;;;;15.32;69.45;99746.00;335961;29;5251;-79
2023/09/15 00:51:46;;;;;;;1.42;1.00;;;;;;;15.33;69.27;99750.28;333441;28;18378;-79
2023/09/15 00:51:59;;;;;;;1.58;1.00;;;;;;;15.27;69.41;99747.97;335899;29;4507;-79
2023/09/15 00:52:11;;;;;;;1.20;0.80;;;;;;;15.22;69.94;99750.84;332905;28;18650;-79
2023/09/15 00:52:24;;;;;;;1.17;0.75;;;;;;;15.20;69.95;99749.22;333354;28;11908;-79
2023/09/15 00:52:37;;;;;;;0.90;0.63;;;;;;;15.12;70.45;99750.44;333282;28;17605;-79
2023/09/15 00:53:38;;;;;;;1.52;0.98;;;;;;;14.94;70.94;99746.13;335510;29;4773;-62
2023/09/15 00:53:51;;;;;;;2.00;0.93;;;;;;;14.92;71.14;99747.97;332600;29;16523;-62
2023/09/15 00:54:03;;;;;;;2.92;0.90;;;;;;;14.87;71.09;99747.34;334923;29;4600;-62
2023/09/15 00:54:16;;;;;;;2.70;0.93;;;;;;;14.84;71.50;99744.88;333357;29;4702;-63
2023/09/15 00:54:28;;;;;;;1.88;0.95;;;;;;;14.84;71.50;99744.88;335377;28;5226;-62
2023/09/15 00:54:41;;;;;;;1.15;0.88;;;;;;;14.81;71.66;99747.63;332722;28;18427;-62
2023/09/15 00:54:53;;;;;;;1.10;0.70;;;;;;;14.82;71.77;99746.72;337590;28;4855;-62
2023/09/15 00:55:08;;;;;;;1.02;0.70;;;;;;;14.80;71.75;99738.09;334112;28;4849;-62
2023/09/15 00:55:24;;;;;;;1.17;0.82;;;;;;;14.83;71.79;99749.28;333999;28;19204;-61
2023/09/15 00:55:37;;;;;;;1.88;0.82;;;;;;;14.88;71.73;99742.03;334175;28;17857;-62
2023/09/15 00:55:51;;;;;;;2.00;0.70;;;;;;;14.90;71.51;99747.19;337395;28;5004;-62
2023/09/15 00:56:03;;;;;;;1.77;0.70;;;;;;;14.92;71.53;99742.75;334821;28;18153;-62
2023/09/15 00:56:16;;;;;;;0.90;0.70;;;;;;;14.94;71.30;99739.13;337242;28;18436;-62
2023/09/15 00:56:28;;;;;;;1.13;0.70;;;;;;;14.95;71.64;99742.56;333443;28;18027;-61
2023/09/15 00:56:41;;;;;;;1.20;0.85;;;;;;;14.95;71.63;99735.59;336646;28;4693;-63
2023/09/15 00:56:53;;;;;;;3.63;0.90;;;;;;;14.98;71.41;99745.06;334932;28;18253;-61
2023/09/15 00:57:05;;;;;;;3.70;0.90;;;;;;;15.02;71.20;99741.34;336119;28;4854;-62
2023/09/15 00:57:17;;;;;;;2.20;0.70;;;;;;;15.03;71.27;99740.44;333179;28;18470;-61
2023/09/15 00:57:30;;;;;;;0.82;0.80;;;;;;;15.07;71.22;99749.84;335499;28;5823;-62
2023/09/15 00:57:42;;;;;;;1.00;0.80;;;;;;;15.08;71.10;99746.28;333725;28;18326;-61
2023/09/15 00:57:56;;;;;;;1.08;0.80;;;;;;;15.09;70.75;99747.13;336296;28;4873;-62
2023/09/15 00:58:11;;;;;;;3.20;1.05;;;;;;;15.06;71.38;99734.22;329481;28;18154;-61
2023/09/15 00:58:24;;;;;;;3.20;1.00;;;;;;;15.04;71.36;99739.50;333211;28;17691;-62
2023/09/15 00:58:40;;;;;;;0.95;0.68;;;;;;;15.06;71.45;99742.91;335432;28;4610;-61
2023/09/15 00:58:52;;;;;;;1.17;0.82;;;;;;;15.09;71.20;99742.75;332166;28;17887;-62
2023/09/15 00:59:05;;;;;;;1.17;0.93;;;;;;;15.11;71.36;99743.53;335062;29;5231;-61
2023/09/15 00:59:18;;;;;;;1.92;1.05;;;;;;;15.10;71.22;99741.81;332930;28;18418;-62
2023/09/15 00:59:30;;;;;;;1.90;1.00;;;;;;;15.13;71.27;99743.44;335531;29;5804;-61
2023/09/15 00:59:42;;;;;;;1.13;0.80;;;;;;;15.15;70.96;99744.22;333922;29;12122;-62
2023/09/15 00:59:54;;;;;;;0.95;0.75;;;;;;;15.15;71.19;99742.47;336205;29;4810;-62
2023/09/15 01:00:12;;;;;;;1.17;0.80;;;;;;;15.15;70.89;99742.47;335570;29;4696;-62
2023/09/15 01:00:24;;;;;;;1.20;0.80;;;;;;;15.15;71.11;99742.47;331928;29;18834;-62
2023/09/15 01:00:37;;;;;;;1.20;0.70;;;;;;;15.14;70.91;99743.38;336089;29;4558;-61
2023/09/15 01:00:49;;;;;;;1.55;0.70;;;;;;;15.13;70.92;99744.31;332486;29;18113;-61
2023/09/15 01:01:06;;;;;;;1.52;0.63;;;;;;;15.15;70.61;99739.84;334909;29;5279;-62
2023/09/15 01:01:18;;;;;;;1.60;0.80;;;;;;;15.16;70.71;99741.50;332369;29;17718;-62
2023/09/15 01:01:31;;;;;;;1.27;0.80;;;;;;;15.15;70.92;99745.06;335762;29;4743;-62
2023/09/15 01:01:47;;;;;;;0.80;0.70;;;;;;;15.18;70.77;99738.81;333946;28;18249;-63
2023/09/15 01:02:00;;;;;;;1.05;0.80;;;;;;;15.18;70.46;99744.91;333795;28;18126;-62
2023/09/15 01:02:13;;;;;;;1.05;0.70;;;;;;;15.19;70.84;99740.50;331376;28;4728;-62
2023/09/15 01:02:25;;;;;;;1.07;0.70;;;;;;;15.21;70.59;99737.81;333394;28;17873;-62
2023/09/15 01:02:38;;;;;;;1.70;0.63;;;;;;;15.22;70.47;99744.75;336302;28;4673;-61
2023/09/15 01:02:50;;;;;;;2.17;0.80;;;;;;;15.21;70.67;99743.91;329807;29;18194;-61
2023/09/15 01:03:03;;;;;;;1.63;0.80;;;;;;;15.22;70.52;99742.16;335127;29;5164;-61